Time;durP1;ratioP1;P1;durP2;ratioP2;P2;SDS_P1;SDS_P2;PMS_P1;PMS_P2;Temp;Humidity;BMP_temperature;BMP_pressure;BME280_temperature;BME280_humidity;BME280_pressure;Samples;Min_cycle;Max_cycle;Signal;HPM_P1;HPM_P2
2021/08/28 00:00:37;;;;;;;5.97;3.35;;;;;;;;;;8224915;28;20453;-74
2021/08/28 00:04:42;;;;;;;5.38;3.70;;;;;;;;;;8252710;28;20067;-75
2021/08/28 00:08:47;;;;;;;8.98;3.20;;;;;;;;;;8255259;28;20368;-74
2021/08/28 00:12:54;;;;;;;9.15;4.47;;;;;;;;;;8255339;28;20322;-74
2021/08/28 00:16:57;;;;;;;9.45;3.70;;;;;;;;;;8263598;28;20476;-74
2021/08/28 00:21:02;;;;;;;5.00;3.10;;;;;;;;;;8262766;28;20491;-74
2021/08/28 00:25:10;;;;;;;5.00;3.47;;;;;;;;;;8262074;28;20356;-74
2021/08/28 00:29:17;;;;;;;6.57;3.60;;;;;;;;;;8261033;28;20080;-74
2021/08/28 00:33:22;;;;;;;6.40;3.50;;;;;;;;;;8262767;28;20502;-75
2021/08/28 00:37:28;;;;;;;5.15;3.65;;;;;;;;;;8263877;28;20372;-74
2021/08/28 00:41:33;;;;;;;6.53;3.85;;;;;;;;;;8261878;28;20349;-74
2021/08/28 00:45:42;;;;;;;7.72;3.90;;;;;;;;;;8261812;28;20452;-74
2021/08/28 00:49:49;;;;;;;6.45;3.78;;;;;;;;;;8246304;28;20372;-74
2021/08/28 00:53:54;;;;;;;5.68;3.25;;;;;;;;;;8229194;28;20068;-75
2021/08/28 00:58:04;;;;;;;8.27;3.47;;;;;;;;;;8229417;28;20479;-74
2021/08/28 01:02:09;;;;;;;6.47;3.70;;;;;;;;;;8227781;28;20353;-74
2021/08/28 01:06:24;;;;;;;6.82;4.25;;;;;;;;;;8211540;28;20507;-74
2021/08/28 01:10:44;;;;;;;7.30;3.97;;;;;;;;;;8212833;28;20391;-75
2021/08/28 01:15:08;;;;;;;6.05;3.78;;;;;;;;;;8212647;28;20053;-74
2021/08/28 01:19:20;;;;;;;6.03;3.70;;;;;;;;;;8210937;28;20445;-76
2021/08/28 01:23:27;;;;;;;6.95;3.97;;;;;;;;;;8212301;28;20357;-75
2021/08/28 01:27:45;;;;;;;9.77;5.72;;;;;;;;;;8226498;28;20380;-74
2021/08/28 01:31:54;;;;;;;10.70;5.30;;;;;;;;;;8227687;28;20356;-74
2021/08/28 01:35:59;;;;;;;11.88;5.72;;;;;;;;;;8226789;28;20457;-75
2021/08/28 01:40:30;;;;;;;9.55;5.40;;;;;;;;;;8227055;28;20361;-75
2021/08/28 01:44:37;;;;;;;7.93;5.47;;;;;;;;;;8211421;28;20469;-75
2021/08/28 01:48:46;;;;;;;10.05;5.47;;;;;;;;;;8210565;28;20361;-75
2021/08/28 01:52:55;;;;;;;7.95;4.93;;;;;;;;;;8211959;28;20476;-75
2021/08/28 01:57:03;;;;;;;11.10;5.75;;;;;;;;;;8209334;28;20050;-75
2021/08/28 02:01:13;;;;;;;13.88;5.47;;;;;;;;;;8209266;28;20464;-75
2021/08/28 02:05:21;;;;;;;8.32;4.55;;;;;;;;;;8225742;28;20478;-75
2021/08/28 02:09:53;;;;;;;6.65;4.10;;;;;;;;;;8226247;28;20433;-75
2021/08/28 02:14:19;;;;;;;6.72;4.53;;;;;;;;;;8209608;28;20490;-75
2021/08/28 02:18:32;;;;;;;11.73;4.95;;;;;;;;;;8225280;28;20452;-75
2021/08/28 02:22:49;;;;;;;12.90;5.63;;;;;;;;;;8194362;28;20389;-76
2021/08/28 02:27:41;;;;;;;12.88;4.60;;;;;;;;;;8226052;28;20488;-75
2021/08/28 02:31:49;;;;;;;12.00;4.93;;;;;;;;;;8225897;28;20441;-76
2021/08/28 02:35:57;;;;;;;9.85;5.55;;;;;;;;;;8225472;28;20360;-75
2021/08/28 02:40:04;;;;;;;9.45;5.50;;;;;;;;;;8225107;28;20440;-75
2021/08/28 02:44:10;;;;;;;8.88;5.13;;;;;;;;;;8209011;28;20457;-75
2021/08/28 02:48:18;;;;;;;7.80;4.90;;;;;;;;;;8192586;28;20449;-75
2021/08/28 02:52:23;;;;;;;9.88;5.28;;;;;;;;;;8209035;28;20392;-75
2021/08/28 02:56:31;;;;;;;7.50;4.57;;;;;;;;;;8224542;28;20476;-75
2021/08/28 03:00:37;;;;;;;17.43;5.17;;;;;;;;;;8225384;28;20388;-74
2021/08/28 03:04:46;;;;;;;8.88;4.78;;;;;;;;;;8208955;28;20950;-74
2021/08/28 03:08:53;;;;;;;10.57;5.80;;;;;;;;;;8208215;28;20393;-75
2021/08/28 03:12:59;;;;;;;8.57;5.35;;;;;;;;;;8223626;28;20037;-74
2021/08/28 03:17:05;;;;;;;9.23;4.72;;;;;;;;;;8207743;28;20407;-74
2021/08/28 03:21:15;;;;;;;9.80;5.53;;;;;;;;;;8209050;28;20376;-74
2021/08/28 03:25:20;;;;;;;9.90;5.22;;;;;;;;;;8225602;28;20499;-75
2021/08/28 03:29:26;;;;;;;8.55;5.43;;;;;;;;;;8207530;28;20414;-74
2021/08/28 03:33:32;;;;;;;10.38;5.00;;;;;;;;;;8223879;28;20050;-75
2021/08/28 03:37:41;;;;;;;10.25;5.18;;;;;;;;;;8224252;28;20345;-75
2021/08/28 03:41:49;;;;;;;7.80;4.40;;;;;;;;;;8208048;28;20069;-74
2021/08/28 03:45:54;;;;;;;14.48;5.43;;;;;;;;;;8207175;28;20487;-75
2021/08/28 03:50:00;;;;;;;8.82;5.43;;;;;;;;;;8211729;28;20480;-75
2021/08/28 03:54:05;;;;;;;10.27;4.95;;;;;;;;;;8229039;28;20422;-75
2021/08/28 03:58:10;;;;;;;9.82;5.57;;;;;;;;;;8233226;28;20346;-74
2021/08/28 04:02:17;;;;;;;11.05;4.95;;;;;;;;;;8230526;28;20085;-74
2021/08/28 04:06:26;;;;;;;9.60;4.95;;;;;;;;;;8229151;28;20385;-75
2021/08/28 04:10:31;;;;;;;8.27;5.45;;;;;;;;;;8213386;28;20470;-75
2021/08/28 04:14:36;;;;;;;10.75;5.32;;;;;;;;;;8212873;28;20480;-75
2021/08/28 04:18:40;;;;;;;13.75;5.78;;;;;;;;;;8230813;28;20496;-74
2021/08/28 04:23:03;;;;;;;9.55;5.82;;;;;;;;;;8229267;28;20507;-75
2021/08/28 04:27:27;;;;;;;28.02;9.57;;;;;;;;;;8229125;28;20448;-75
2021/08/28 04:31:33;;;;;;;19.23;7.88;;;;;;;;;;8212209;28;20396;-75
2021/08/28 04:35:38;;;;;;;33.63;9.18;;;;;;;;;;8228292;28;20380;-75
2021/08/28 04:39:43;;;;;;;33.45;9.25;;;;;;;;;;8227892;28;20409;-74
2021/08/28 04:43:49;;;;;;;22.42;9.13;;;;;;;;;;8212892;28;20352;-75
2021/08/28 04:47:57;;;;;;;19.13;8.63;;;;;;;;;;8211979;28;20476;-75
2021/08/28 04:52:02;;;;;;;30.45;8.30;;;;;;;;;;8227674;28;20072;-75
2021/08/28 04:56:07;;;;;;;17.05;9.02;;;;;;;;;;8211421;28;20064;-75
2021/08/28 05:00:13;;;;;;;20.55;8.30;;;;;;;;;;8226728;28;20499;-75
2021/08/28 05:04:36;;;;;;;17.95;8.07;;;;;;;;;;8228366;28;20350;-76
2021/08/28 05:08:42;;;;;;;14.25;8.80;;;;;;;;;;8226811;28;20379;-75
2021/08/28 05:12:47;;;;;;;18.58;8.88;;;;;;;;;;8226555;28;20460;-75
2021/08/28 05:16:54;;;;;;;16.25;8.60;;;;;;;;;;8226691;28;20464;-74
2021/08/28 05:21:20;;;;;;;15.77;8.23;;;;;;;;;;8228241;28;20372;-75
2021/08/28 05:25:53;;;;;;;17.25;8.73;;;;;;;;;;8228307;28;20467;-75
2021/08/28 05:29:59;;;;;;;16.90;9.43;;;;;;;;;;8227533;28;20387;-74
2021/08/28 05:34:05;;;;;;;19.55;9.95;;;;;;;;;;8211073;28;20404;-75
2021/08/28 05:38:29;;;;;;;18.42;8.80;;;;;;;;;;8227813;28;20385;-75
2021/08/28 05:42:37;;;;;;;18.98;9.77;;;;;;;;;;8210712;28;20492;-74
2021/08/28 05:46:42;;;;;;;17.10;9.13;;;;;;;;;;8211974;28;20467;-74
2021/08/28 05:50:57;;;;;;;12.70;7.65;;;;;;;;;;8225810;28;20354;-74
2021/08/28 05:55:14;;;;;;;13.93;7.85;;;;;;;;;;8209369;28;20452;-74
2021/08/28 05:59:19;;;;;;;17.80;8.93;;;;;;;;;;8194300;28;20361;-74
2021/08/28 06:03:25;;;;;;;16.08;8.00;;;;;;;;;;8226038;28;20049;-74
2021/08/28 06:07:37;;;;;;;15.32;8.35;;;;;;;;;;8226513;28;20453;-74
2021/08/28 06:12:20;;;;;;;15.52;7.75;;;;;;;;;;8190171;28;20488;-73
2021/08/28 06:16:48;;;;;;;13.48;7.57;;;;;;;;;;8209984;28;20373;-74
2021/08/28 06:20:58;;;;;;;13.13;7.32;;;;;;;;;;8225793;28;20510;-74
2021/08/28 06:25:03;;;;;;;16.30;7.88;;;;;;;;;;8225677;28;20483;-74
2021/08/28 06:29:08;;;;;;;18.35;6.35;;;;;;;;;;8225035;28;20465;-74
2021/08/28 06:33:16;;;;;;;17.30;7.57;;;;;;;;;;8210130;28;20457;-74
2021/08/28 06:37:21;;;;;;;14.20;8.38;;;;;;;;;;8225439;28;20503;-74
2021/08/28 06:41:45;;;;;;;18.60;8.07;;;;;;;;;;8228425;28;20365;-75
2021/08/28 06:46:09;;;;;;;16.42;7.95;;;;;;;;;;8226216;28;20068;-74
2021/08/28 06:50:36;;;;;;;17.08;8.40;;;;;;;;;;8223599;28;20360;-73
2021/08/28 06:55:00;;;;;;;15.77;8.35;;;;;;;;;;8226729;28;20448;-73
2021/08/28 06:59:23;;;;;;;19.42;8.85;;;;;;;;;;8226597;28;20499;-73
2021/08/28 07:03:41;;;;;;;21.25;9.07;;;;;;;;;;8223590;28;20373;-73
2021/08/28 07:07:51;;;;;;;17.05;8.68;;;;;;;;;;8224474;28;20527;-73
2021/08/28 07:11:57;;;;;;;23.90;9.40;;;;;;;;;;8207834;28;20476;-73
2021/08/28 07:16:02;;;;;;;16.75;8.00;;;;;;;;;;8225124;28;20353;-73
2021/08/28 07:20:08;;;;;;;30.67;9.68;;;;;;;;;;8207358;28;20468;-74
2021/08/28 07:24:16;;;;;;;17.08;7.90;;;;;;;;;;8207784;28;20484;-74
2021/08/28 07:28:24;;;;;;;30.40;8.35;;;;;;;;;;8223352;28;20465;-74
2021/08/28 07:32:31;;;;;;;14.80;7.07;;;;;;;;;;8224587;28;20136;-74
2021/08/28 07:36:36;;;;;;;16.70;6.90;;;;;;;;;;8224905;28;20460;-73
2021/08/28 07:40:43;;;;;;;14.10;5.72;;;;;;;;;;8222802;28;20346;-75
2021/08/28 07:44:49;;;;;;;18.48;6.45;;;;;;;;;;8223406;28;20472;-73
2021/08/28 07:48:55;;;;;;;20.20;6.53;;;;;;;;;;8223408;28;20479;-74
2021/08/28 07:53:01;;;;;;;13.15;6.20;;;;;;;;;;8222782;28;20456;-74
2021/08/28 07:57:10;;;;;;;16.60;6.00;;;;;;;;;;8223864;28;20068;-75
2021/08/28 08:01:16;;;;;;;13.90;4.70;;;;;;;;;;8223459;28;20504;-74
2021/08/28 08:05:22;;;;;;;14.38;4.68;;;;;;;;;;8222723;28;20472;-73
2021/08/28 08:09:50;;;;;;;10.93;4.90;;;;;;;;;;8223626;28;20460;-74
2021/08/28 08:14:14;;;;;;;16.08;4.45;;;;;;;;;;8225144;28;20102;-75
2021/08/28 08:18:45;;;;;;;14.98;5.28;;;;;;;;;;8215738;28;20487;-74
2021/08/28 08:23:13;;;;;;;9.75;4.18;;;;;;;;;;8213223;28;20487;-74
2021/08/28 08:27:36;;;;;;;8.88;3.92;;;;;;;;;;8224437;28;20475;-75
2021/08/28 08:31:57;;;;;;;13.45;4.97;;;;;;;;;;8209998;28;20360;-74
2021/08/28 08:36:10;;;;;;;9.80;4.70;;;;;;;;;;8226543;28;20326;-75
2021/08/28 08:40:15;;;;;;;8.43;4.00;;;;;;;;;;8212523;28;20053;-75
2021/08/28 08:44:22;;;;;;;10.25;5.22;;;;;;;;;;8230149;28;20067;-74
2021/08/28 08:48:29;;;;;;;4.03;2.67;;;;;;;;;;8212443;28;20452;-75
2021/08/28 08:52:34;;;;;;;4.53;2.10;;;;;;;;;;8212693;28;20473;-75
2021/08/28 08:57:05;;;;;;;5.20;1.65;;;;;;;;;;8215640;28;20046;-75
2021/08/28 09:01:10;;;;;;;4.40;1.75;;;;;;;;;;8195950;28;20501;-74
2021/08/28 09:05:16;;;;;;;6.53;2.47;;;;;;;;;;8228814;28;20104;-74
2021/08/28 09:09:22;;;;;;;2.95;1.52;;;;;;;;;;8227396;28;20460;-73
2021/08/28 09:13:27;;;;;;;4.10;1.65;;;;;;;;;;8228204;28;20408;-74
2021/08/28 09:17:32;;;;;;;1.27;0.55;;;;;;;;;;8228766;28;20484;-74
2021/08/28 09:21:38;;;;;;;1.08;0.60;;;;;;;;;;8229460;28;20492;-75
2021/08/28 09:25:45;;;;;;;1.23;0.70;;;;;;;;;;8228668;28;20041;-75
2021/08/28 09:29:49;;;;;;;0.40;0.40;;;;;;;;;;8230805;28;20410;-75
2021/08/28 09:34:20;;;;;;;0.85;0.50;;;;;;;;;;8229001;28;20431;-75
2021/08/28 09:38:24;;;;;;;0.65;0.40;;;;;;;;;;8227135;28;20535;-75
2021/08/28 09:42:28;;;;;;;0.52;0.32;;;;;;;;;;8227930;28;20484;-75
2021/08/28 09:46:33;;;;;;;1.40;0.50;;;;;;;;;;8211404;28;20038;-75
2021/08/28 09:50:43;;;;;;;1.23;0.45;;;;;;;;;;8229152;28;20361;-75
2021/08/28 09:54:48;;;;;;;2.05;0.43;;;;;;;;;;8228261;28;20457;-74
2021/08/28 09:58:53;;;;;;;1.27;0.65;;;;;;;;;;8227804;28;20044;-74
2021/08/28 10:03:06;;;;;;;0.88;0.63;;;;;;;;;;8226399;28;20342;-74
2021/08/28 10:07:11;;;;;;;2.63;0.88;;;;;;;;;;8225825;28;20463;-75
2021/08/28 10:11:16;;;;;;;0.77;0.40;;;;;;;;;;8225319;28;20460;-75
2021/08/28 10:17:24;;;;;;;1.13;0.50;;;;;;;;;;8187495;27;1655034;-75
2021/08/28 10:21:29;;;;;;;0.50;0.50;;;;;;;;;;8320071;28;20498;-74
2021/08/28 10:25:39;;;;;;;5.55;0.55;;;;;;;;;;8301422;28;20464;-73
2021/08/28 10:29:46;;;;;;;1.65;0.88;;;;;;;;;;8319198;28;20102;-75
2021/08/28 10:33:51;;;;;;;0.60;0.53;;;;;;;;;;8300148;28;20366;-75
2021/08/28 10:37:56;;;;;;;4.47;0.50;;;;;;;;;;8300316;28;20474;-74
2021/08/28 10:42:02;;;;;;;0.98;0.50;;;;;;;;;;8318250;28;20483;-74
2021/08/28 10:46:29;;;;;;;1.40;0.80;;;;;;;;;;8299721;28;20341;-75
2021/08/28 10:50:41;;;;;;;0.80;0.55;;;;;;;;;;8301265;28;20475;-74
2021/08/28 10:55:06;;;;;;;2.03;0.70;;;;;;;;;;8319017;28;20379;-75
2021/08/28 10:59:23;;;;;;;0.77;0.55;;;;;;;;;;8317982;28;20037;-74
2021/08/28 11:03:30;;;;;;;1.08;0.57;;;;;;;;;;8318755;28;20490;-74
2021/08/28 11:07:42;;;;;;;;;;;;;;;;;;8318012;28;20371;-75
2021/08/28 11:11:48;;;;;;;2.40;0.98;;;;;;;;;;8317632;28;20355;-75
2021/08/28 11:15:53;;;;;;;1.00;0.70;;;;;;;;;;8281199;28;20374;-75
2021/08/28 11:20:01;;;;;;;1.00;0.68;;;;;;;;;;8284435;28;20452;-74
2021/08/28 11:24:14;;;;;;;1.40;0.50;;;;;;;;;;8282431;28;20470;-74
2021/08/28 11:28:21;;;;;;;2.97;0.90;;;;;;;;;;8265743;28;20456;-74
2021/08/28 11:32:26;;;;;;;2.15;1.05;;;;;;;;;;8259812;28;20460;-74
2021/08/28 11:36:32;;;;;;;1.80;0.95;;;;;;;;;;8259064;28;20496;-75
2021/08/28 11:40:37;;;;;;;0.85;0.60;;;;;;;;;;8256523;28;20352;-73
2021/08/28 11:44:47;;;;;;;1.65;0.75;;;;;;;;;;8261452;28;20053;-75
2021/08/28 11:48:52;;;;;;;1.17;0.75;;;;;;;;;;8242665;28;20071;-74
2021/08/28 11:52:57;;;;;;;3.70;1.35;;;;;;;;;;8246399;28;20394;-75
2021/08/28 11:57:02;;;;;;;2.92;0.80;;;;;;;;;;8275930;28;20333;-74
2021/08/28 12:01:08;;;;;;;1.30;0.90;;;;;;;;;;8259428;28;20493;-74
2021/08/28 12:05:16;;;;;;;2.05;0.93;;;;;;;;;;8257397;28;20375;-75
2021/08/28 12:09:26;;;;;;;1.85;1.20;;;;;;;;;;8260728;28;20063;-75
2021/08/28 12:13:47;;;;;;;2.83;0.90;;;;;;;;;;8260411;28;20364;-75
2021/08/28 12:17:52;;;;;;;1.90;1.10;;;;;;;;;;8225894;28;20475;-75
2021/08/28 12:22:05;;;;;;;1.42;0.88;;;;;;;;;;8225976;28;20631;-74
2021/08/28 12:26:21;;;;;;;1.92;0.75;;;;;;;;;;8226176;28;20385;-74
2021/08/28 12:30:26;;;;;;;2.53;1.00;;;;;;;;;;8226378;28;20376;-75
2021/08/28 12:34:34;;;;;;;1.67;0.77;;;;;;;;;;8226724;28;20492;-75
2021/08/28 12:38:39;;;;;;;2.05;0.90;;;;;;;;;;8226623;28;20045;-75
2021/08/28 12:42:47;;;;;;;3.92;1.27;;;;;;;;;;8227307;28;20475;-75
2021/08/28 12:46:54;;;;;;;1.75;0.80;;;;;;;;;;8226112;28;20376;-74
2021/08/28 12:51:09;;;;;;;1.35;1.05;;;;;;;;;;8226602;28;20365;-75
2021/08/28 12:55:30;;;;;;;2.35;1.10;;;;;;;;;;8226400;28;20368;-75
2021/08/28 13:00:08;;;;;;;1.65;0.73;;;;;;;;;;8225801;28;20041;-75
2021/08/28 13:04:13;;;;;;;1.00;0.80;;;;;;;;;;8225183;28;20460;-75
2021/08/28 13:08:36;;;;;;;1.95;0.80;;;;;;;;;;8227652;28;20479;-74
2021/08/28 13:13:02;;;;;;;1.88;0.57;;;;;;;;;;8225147;28;20420;-75
2021/08/28 13:17:08;;;;;;;1.48;1.00;;;;;;;;;;8236011;28;20049;-75
2021/08/28 13:21:13;;;;;;;0.80;0.47;;;;;;;;;;8242131;28;20056;-75
2021/08/28 13:25:28;;;;;;;4.10;0.60;;;;;;;;;;8227270;28;20460;-75
2021/08/28 13:29:35;;;;;;;0.80;0.57;;;;;;;;;;8152810;28;20494;-75
2021/08/28 13:33:39;;;;;;;1.15;0.73;;;;;;;;;;8229718;28;20468;-75
2021/08/28 13:37:45;;;;;;;0.63;0.60;;;;;;;;;;8230893;28;20364;-75
2021/08/28 13:41:48;;;;;;;0.70;0.50;;;;;;;;;;8223968;28;20345;-75
2021/08/28 13:45:54;;;;;;;2.75;0.70;;;;;;;;;;8221783;28;20029;-74
2021/08/28 13:49:58;;;;;;;2.42;1.02;;;;;;;;;;8224981;28;20049;-74
2021/08/28 13:54:03;;;;;;;1.98;0.90;;;;;;;;;;8224766;28;20748;-75
2021/08/28 13:58:08;;;;;;;2.83;0.95;;;;;;;;;;8239533;28;20341;-74
2021/08/28 14:02:12;;;;;;;0.80;0.63;;;;;;;;;;8225020;28;20518;-75
2021/08/28 14:06:17;;;;;;;1.88;0.70;;;;;;;;;;8224617;28;20098;-75
2021/08/28 14:10:22;;;;;;;1.40;0.75;;;;;;;;;;8240259;28;20504;-75
2021/08/28 14:14:28;;;;;;;0.88;0.80;;;;;;;;;;8237260;28;20494;-76
2021/08/28 14:18:34;;;;;;;1.58;0.65;;;;;;;;;;8288101;28;20333;-75
2021/08/28 14:22:39;;;;;;;3.30;1.00;;;;;;;;;;8290040;28;20067;-76
2021/08/28 14:26:44;;;;;;;1.85;0.98;;;;;;;;;;8276345;28;20057;-74
2021/08/28 14:30:49;;;;;;;5.28;0.88;;;;;;;;;;8291019;28;20040;-76
2021/08/28 14:34:53;;;;;;;0.98;0.60;;;;;;;;;;8289231;28;20479;-76
2021/08/28 14:38:58;;;;;;;1.20;0.75;;;;;;;;;;8271400;28;20402;-74
2021/08/28 14:43:04;;;;;;;1.35;0.80;;;;;;;;;;8288133;28;20355;-76
2021/08/28 14:47:09;;;;;;;1.38;0.80;;;;;;;;;;8290035;28;20471;-75
2021/08/28 14:51:14;;;;;;;0.98;0.50;;;;;;;;;;8289623;28;20478;-75
2021/08/28 14:55:18;;;;;;;2.72;1.10;;;;;;;;;;8290311;28;20355;-75
2021/08/28 14:59:23;;;;;;;2.15;0.73;;;;;;;;;;8271710;28;20439;-74
2021/08/28 15:03:31;;;;;;;3.42;1.10;;;;;;;;;;8259027;28;20036;-75
2021/08/28 15:07:35;;;;;;;1.17;0.82;;;;;;;;;;8297595;28;20460;-75
2021/08/28 15:11:39;;;;;;;0.93;0.70;;;;;;;;;;8277214;28;20355;-74
2021/08/28 15:15:45;;;;;;;1.85;0.73;;;;;;;;;;8294158;28;20394;-74
2021/08/28 15:19:50;;;;;;;2.92;1.00;;;;;;;;;;8294742;28;20459;-75
2021/08/28 15:23:55;;;;;;;2.38;1.10;;;;;;;;;;8248055;28;20059;-74
2021/08/28 15:27:59;;;;;;;1.90;1.10;;;;;;;;;;8295474;28;20067;-74
2021/08/28 15:32:06;;;;;;;2.25;1.08;;;;;;;;;;8292382;28;20091;-75
2021/08/28 15:36:10;;;;;;;4.50;2.15;;;;;;;;;;8287916;28;20448;-73
2021/08/28 15:40:15;;;;;;;5.53;2.45;;;;;;;;;;8276986;28;20448;-76
2021/08/28 16:25:13;;;;;;;6.45;3.05;;;;;;;;;;8379969;27;21138;-73
2021/08/28 16:29:17;;;;;;;12.50;6.45;;;;;;;;;;8328259;28;20050;-75
2021/08/28 16:33:22;;;;;;;4.18;2.17;;;;;;;;;;8339926;28;20093;-74
2021/08/28 16:37:26;;;;;;;14.60;4.72;;;;;;;;;;8318403;28;20083;-74
2021/08/28 16:41:32;;;;;;;11.98;4.70;;;;;;;;;;8286783;28;20377;-75
2021/08/28 16:45:37;;;;;;;12.18;3.47;;;;;;;;;;8317943;28;20348;-74
2021/08/28 16:49:43;;;;;;;14.57;6.85;;;;;;;;;;8302139;28;20479;-74
2021/08/28 16:53:49;;;;;;;11.25;4.05;;;;;;;;;;8318396;28;20498;-74
2021/08/28 16:57:54;;;;;;;6.15;2.85;;;;;;;;;;8316617;28;20477;-74
2021/08/28 17:01:58;;;;;;;15.98;3.88;;;;;;;;;;8314133;28;20458;-74
2021/08/28 17:06:04;;;;;;;18.05;4.47;;;;;;;;;;8323674;28;20481;-74
2021/08/28 17:10:09;;;;;;;13.70;5.47;;;;;;;;;;8327598;28;20044;-74
2021/08/28 17:14:15;;;;;;;8.23;3.55;;;;;;;;;;8336421;28;20496;-74
2021/08/28 17:18:21;;;;;;;19.63;4.60;;;;;;;;;;8332908;28;20378;-74
2021/08/28 17:22:26;;;;;;;10.57;3.70;;;;;;;;;;8348558;28;20535;-74
2021/08/28 17:26:31;;;;;;;12.23;3.83;;;;;;;;;;8314078;28;20452;-75
2021/08/28 17:30:36;;;;;;;14.68;3.28;;;;;;;;;;8318563;28;20520;-74
2021/08/28 17:34:41;;;;;;;10.05;2.78;;;;;;;;;;8310521;28;20344;-75
2021/08/28 17:38:47;;;;;;;15.63;6.60;;;;;;;;;;8213999;28;20411;-74
2021/08/28 17:42:52;;;;;;;15.82;7.65;;;;;;;;;;8222630;28;20390;-74
2021/08/28 17:46:57;;;;;;;6.72;3.10;;;;;;;;;;8212260;28;20072;-75
2021/08/28 17:51:02;;;;;;;13.70;6.82;;;;;;;;;;8229240;28;20383;-74
2021/08/28 17:55:09;;;;;;;10.95;6.32;;;;;;;;;;8163336;28;20349;-74
2021/08/28 17:59:12;;;;;;;13.50;6.63;;;;;;;;;;8258951;28;20033;-74
2021/08/28 18:03:16;;;;;;;7.28;3.95;;;;;;;;;;8260713;28;20460;-74
2021/08/28 18:07:22;;;;;;;5.85;3.50;;;;;;;;;;8261458;28;20064;-75
2021/08/28 18:11:27;;;;;;;9.15;3.90;;;;;;;;;;8192615;28;20367;-74
2021/08/28 18:15:31;;;;;;;14.02;6.45;;;;;;;;;;8260514;28;20379;-74
2021/08/28 18:19:38;;;;;;;9.80;4.68;;;;;;;;;;8227608;28;20463;-74
2021/08/28 18:23:42;;;;;;;9.30;4.60;;;;;;;;;;8259472;28;20514;-74
2021/08/28 18:27:49;;;;;;;8.20;4.70;;;;;;;;;;8244642;28;20399;-74
2021/08/28 18:31:55;;;;;;;8.82;3.80;;;;;;;;;;8242946;28;20480;-74
2021/08/28 18:36:00;;;;;;;7.70;4.18;;;;;;;;;;8243017;28;20395;-74
2021/08/28 18:40:06;;;;;;;7.97;4.00;;;;;;;;;;8256031;28;20391;-74
2021/08/28 18:44:11;;;;;;;12.52;5.70;;;;;;;;;;8243031;28;20044;-74
2021/08/28 18:48:16;;;;;;;12.02;4.88;;;;;;;;;;7914405;28;10000285;-74
2021/08/28 18:52:21;;;;;;;12.00;4.50;;;;;;;;;;8261709;28;20348;-74
2021/08/28 18:56:26;;;;;;;9.80;3.95;;;;;;;;;;8260184;28;20061;-74
2021/08/28 19:00:31;;;;;;;8.63;3.90;;;;;;;;;;8242138;28;20045;-74
2021/08/28 19:04:35;;;;;;;11.27;4.25;;;;;;;;;;8260154;28;20068;-75
2021/08/28 19:08:40;;;;;;;17.05;6.32;;;;;;;;;;8258642;28;20347;-74
2021/08/28 19:12:45;;;;;;;11.50;5.78;;;;;;;;;;8259626;28;20063;-74
2021/08/28 19:16:51;;;;;;;9.48;5.55;;;;;;;;;;8240764;28;20045;-74
2021/08/28 19:20:59;;;;;;;36.33;13.90;;;;;;;;;;8258761;28;20072;-74
2021/08/28 19:25:05;;;;;;;;;;;;;;;;;;8224748;28;20057;-74
2021/08/28 19:29:10;;;;;;;16.75;8.32;;;;;;;;;;8225628;28;19987;-73
2021/08/28 19:33:15;;;;;;;16.00;8.88;;;;;;;;;;8225044;28;20068;-74
2021/08/28 19:37:20;;;;;;;15.63;9.15;;;;;;;;;;8225759;28;20348;-73
2021/08/28 19:41:26;;;;;;;12.40;7.10;;;;;;;;;;8224362;28;20395;-74
2021/08/28 19:45:29;;;;;;;16.48;6.40;;;;;;;;;;8224420;28;20480;-73
2021/08/28 19:49:33;;;;;;;14.98;7.10;;;;;;;;;;8222097;28;20365;-74
2021/08/28 19:53:44;;;;;;;16.83;6.57;;;;;;;;;;8223929;28;20349;-74
2021/08/28 19:57:49;;;;;;;11.30;7.03;;;;;;;;;;8221542;28;20045;-74
2021/08/28 20:01:54;;;;;;;13.85;7.20;;;;;;;;;;8221013;28;20041;-74
2021/08/28 20:05:59;;;;;;;16.52;5.32;;;;;;;;;;8225091;28;20449;-74
2021/08/28 20:10:06;;;;;;;8.60;5.35;;;;;;;;;;8225267;28;20346;-73
2021/08/28 20:14:13;;;;;;;16.13;6.07;;;;;;;;;;8223013;28;20468;-73
2021/08/28 20:18:17;;;;;;;13.70;5.53;;;;;;;;;;8224519;28;20045;-74
2021/08/28 20:22:22;;;;;;;9.38;4.50;;;;;;;;;;8233434;28;20680;-73
2021/08/28 20:26:27;;;;;;;8.20;4.65;;;;;;;;;;8257287;28;20490;-74
2021/08/28 20:30:32;;;;;;;10.93;5.20;;;;;;;;;;8257205;28;20472;-74
2021/08/28 20:34:38;;;;;;;10.02;5.53;;;;;;;;;;8258609;28;20461;-74
2021/08/28 20:38:43;;;;;;;15.57;5.18;;;;;;;;;;8256889;28;20400;-73
2021/08/28 20:42:48;;;;;;;15.82;4.63;;;;;;;;;;8238160;28;20452;-73
2021/08/28 20:46:53;;;;;;;9.75;4.93;;;;;;;;;;8238883;28;20053;-73
2021/08/28 20:50:59;;;;;;;8.05;4.80;;;;;;;;;;8256686;28;20518;-74
2021/08/28 20:55:05;;;;;;;12.90;6.38;;;;;;;;;;8237472;28;20041;-73
2021/08/28 20:59:10;;;;;;;14.82;5.78;;;;;;;;;;8256240;28;20080;-73
2021/08/28 21:03:15;;;;;;;16.73;7.10;;;;;;;;;;8257670;28;20049;-74
2021/08/28 21:07:20;;;;;;;10.50;5.95;;;;;;;;;;8259393;28;20349;-73
2021/08/28 21:11:25;;;;;;;14.02;7.18;;;;;;;;;;8244001;28;20391;-74
2021/08/28 21:15:30;;;;;;;12.65;6.75;;;;;;;;;;8262880;28;20440;-74
2021/08/28 21:19:35;;;;;;;18.00;6.43;;;;;;;;;;8263335;28;20048;-73
2021/08/28 21:23:41;;;;;;;10.40;5.72;;;;;;;;;;8245470;28;20351;-74
2021/08/28 21:27:46;;;;;;;10.43;5.90;;;;;;;;;;8261374;28;20506;-73
2021/08/28 21:31:52;;;;;;;10.00;5.95;;;;;;;;;;8231237;28;20472;-74
2021/08/28 21:35:58;;;;;;;9.65;5.70;;;;;;;;;;8212949;28;20053;-74
2021/08/28 21:40:02;;;;;;;14.85;6.75;;;;;;;;;;8211482;28;20375;-74
2021/08/28 21:44:08;;;;;;;10.88;5.95;;;;;;;;;;8212469;28;20407;-74
2021/08/28 21:48:13;;;;;;;11.75;6.18;;;;;;;;;;8229596;28;20345;-74
2021/08/28 21:52:18;;;;;;;11.90;6.30;;;;;;;;;;8229343;28;20064;-74
2021/08/28 21:56:23;;;;;;;10.10;5.90;;;;;;;;;;8229431;28;20042;-74
2021/08/28 22:00:50;;;;;;;10.98;5.22;;;;;;;;;;8229348;28;20361;-74
2021/08/28 22:04:56;;;;;;;8.43;5.03;;;;;;;;;;8229332;28;20326;-73
2021/08/28 22:09:01;;;;;;;10.90;5.97;;;;;;;;;;8211020;28;20490;-74
2021/08/28 22:13:07;;;;;;;13.32;6.05;;;;;;;;;;8210735;28;20080;-74
2021/08/28 22:17:12;;;;;;;10.15;5.75;;;;;;;;;;8229093;28;20472;-73
2021/08/28 22:21:18;;;;;;;12.23;6.20;;;;;;;;;;8210881;28;20071;-73
2021/08/28 22:25:23;;;;;;;10.23;6.13;;;;;;;;;;8227753;28;20457;-74
2021/08/28 22:29:28;;;;;;;11.73;6.40;;;;;;;;;;8227750;28;20472;-74
2021/08/28 22:33:33;;;;;;;7.95;5.20;;;;;;;;;;8228929;28;20160;-73
2021/08/28 22:37:39;;;;;;;11.13;5.93;;;;;;;;;;8228800;28;20388;-73
2021/08/28 22:41:44;;;;;;;13.52;5.85;;;;;;;;;;8210108;28;20346;-74
2021/08/28 22:45:49;;;;;;;15.27;7.90;;;;;;;;;;8227768;28;20456;-74
2021/08/28 22:49:55;;;;;;;22.50;10.23;;;;;;;;;;8228348;28;20368;-74
2021/08/28 22:54:01;;;;;;;13.25;6.43;;;;;;;;;;8229374;28;20500;-73
2021/08/28 22:58:06;;;;;;;9.52;5.63;;;;;;;;;;8226258;28;20041;-73
2021/08/28 23:02:11;;;;;;;13.63;6.22;;;;;;;;;;8226922;28;20483;-74
2021/08/28 23:06:17;;;;;;;12.90;6.30;;;;;;;;;;8208068;28;20476;-73
2021/08/28 23:10:22;;;;;;;11.23;5.28;;;;;;;;;;8226742;28;20364;-74
2021/08/28 23:14:28;;;;;;;14.48;6.45;;;;;;;;;;8227101;28;20481;-74
2021/08/28 23:18:33;;;;;;;11.77;4.93;;;;;;;;;;8226944;28;20468;-74
2021/08/28 23:22:38;;;;;;;9.30;5.07;;;;;;;;;;8225469;28;20507;-74
2021/08/28 23:26:43;;;;;;;15.27;4.90;;;;;;;;;;8208171;28;20348;-74
2021/08/28 23:30:48;;;;;;;11.38;5.60;;;;;;;;;;8225753;28;20499;-74
2021/08/28 23:34:53;;;;;;;10.13;5.32;;;;;;;;;;8226441;28;20049;-74
2021/08/28 23:38:58;;;;;;;11.32;5.78;;;;;;;;;;8208509;28;20072;-74
2021/08/28 23:43:04;;;;;;;11.23;5.40;;;;;;;;;;8225836;28;20437;-74
2021/08/28 23:47:09;;;;;;;10.07;5.32;;;;;;;;;;8225567;28;20484;-74
2021/08/28 23:51:15;;;;;;;13.93;5.30;;;;;;;;;;8224844;28;20384;-75
2021/08/28 23:55:20;;;;;;;17.05;6.63;;;;;;;;;;8208033;28;20396;-74
2021/08/28 23:59:25;;;;;;;13.35;5.55;;;;;;;;;;8225393;28;20408;-74
